Time,TemperatureF,DewpointF,PressureIn,WindDirection,WindDirectionDegrees,WindSpeedMPH,WindSpeedGustMPH,Humidity,HourlyPrecipIn,Conditions,Clouds,dailyrainin,SoftwareType,DateUTC
2013-06-15 08:00:00,50.0,15.0,-100.00,SSE,168,5.0,12.0,24,-99.99,,,-99.99,,2013-06-15 14:00:00,
2013-06-15 08:43:00,50.0,15.0,-100.00,SSE,168,5.0,12.0,24,-99.99,,,-99.99,,2013-06-15 14:43:00,
2013-06-15 08:54:00,50.0,15.0,-100.00,SSE,168,5.0,12.0,24,-99.99,,,-99.99,,2013-06-15 14:54:00,
2013-06-15 10:00:00,49.0,8.0,-100.00,WSW,256,15.0,33.0,18,-99.99,,,-99.99,,2013-06-15 16:00:00,
2013-06-15 10:43:00,49.0,8.0,-100.00,WSW,256,15.0,33.0,18,-99.99,,,-99.99,,2013-06-15 16:43:00,
2013-06-15 10:53:00,49.0,8.0,-100.00,WSW,256,15.0,33.0,18,-99.99,,,-99.99,,2013-06-15 16:53:00,
2013-06-15 12:00:00,52.0,12.0,-100.00,West,263,16.0,33.0,20,-99.99,,,-99.99,,2013-06-15 18:00:00,
2013-06-15 12:43:00,52.0,12.0,-100.00,West,263,16.0,33.0,20,-99.99,,,-99.99,,2013-06-15 18:43:00,
2013-06-15 12:53:00,52.0,12.0,-100.00,West,263,16.0,33.0,20,-99.99,,,-99.99,,2013-06-15 18:53:00,
2013-06-15 13:00:00,52.0,16.0,-100.00,West,270,17.0,33.0,24,-99.99,,,-99.99,,2013-06-15 19:00:00,
2013-06-15 13:43:00,52.0,16.0,-100.00,West,270,17.0,33.0,24,-99.99,,,-99.99,,2013-06-15 19:43:00,
2013-06-15 13:53:00,52.0,16.0,-100.00,West,270,17.0,33.0,24,-99.99,,,-99.99,,2013-06-15 19:53:00,
2013-06-15 15:00:00,52.0,19.0,-100.00,West,265,16.0,32.0,27,-99.99,,,-99.99,,2013-06-15 21:00:00,
2013-06-15 15:42:00,52.0,19.0,-100.00,West,265,16.0,32.0,27,-99.99,,,-99.99,,2013-06-15 21:42:00,
2013-06-15 15:53:00,52.0,19.0,-100.00,West,265,16.0,32.0,27,-99.99,,,-99.99,,2013-06-15 21:53:00,
2013-06-15 17:00:00,52.0,20.0,-100.00,West,271,13.0,27.0,27,-99.99,,,-99.99,,2013-06-15 23:00:00,
2013-06-15 17:43:00,52.0,20.0,-100.00,West,271,13.0,27.0,27,-99.99,,,-99.99,,2013-06-15 23:43:00,
2013-06-15 17:53:00,52.0,20.0,-100.00,West,271,13.0,27.0,27,-99.99,,,-99.99,,2013-06-15 23:53:00,
2013-06-15 19:00:00,50.0,20.0,-100.00,West,267,15.0,26.0,30,-99.99,,,-99.99,,2013-06-16 01:00:00,
2013-06-15 19:43:00,50.0,20.0,-100.00,West,267,15.0,26.0,30,-99.99,,,-99.99,,2013-06-16 01:43:00,
2013-06-15 19:53:00,50.0,20.0,-100.00,West,267,15.0,26.0,30,-99.99,,,-99.99,,2013-06-16 01:53:00,
2013-06-15 21:00:00,49.0,18.0,-100.00,West,264,14.0,25.0,30,-99.99,,,-99.99,,2013-06-16 03:00:00,
2013-06-15 21:43:00,49.0,18.0,-100.00,West,264,14.0,25.0,30,-99.99,,,-99.99,,2013-06-16 03:43:00,
2013-06-15 21:53:00,49.0,18.0,-100.00,West,264,14.0,25.0,30,-99.99,,,-99.99,,2013-06-16 03:53:00,
2013-06-15 23:00:00,46.0,21.0,-100.00,West,260,12.0,19.0,37,-99.99,,,-99.99,,2013-06-16 05:00:00,
2013-06-15 23:43:00,46.0,21.0,-100.00,West,260,12.0,19.0,37,-99.99,,,-99.99,,2013-06-16 05:43:00,
2013-06-15 23:52:00,46.0,21.0,-100.00,West,260,12.0,19.0,37,-99.99,,,-99.99,,2013-06-16 05:52:00,